Time;durP1;ratioP1;P1;durP2;ratioP2;P2;SDS_P1;SDS_P2;PMS_P1;PMS_P2;Temp;Humidity;BMP_temperature;BMP_pressure;BME280_temperature;BME280_humidity;BME280_pressure;Samples;Min_cycle;Max_cycle;Signal;HPM_P1;HPM_P2
2023/06/14 00:01:23;;;;;;;11.05;6.28;;;;;;;;;;5115159;28;20025;-76
2023/06/14 00:03:48;;;;;;;7.97;6.03;;;;;;;;;;5114873;28;20026;-76
2023/06/14 00:06:15;;;;;;;8.50;6.85;;;;;;;;;;5115005;28;20019;-76
2023/06/14 00:08:41;;;;;;;9.25;5.85;;;;;;;;;;5114961;28;20015;-76
2023/06/14 00:11:07;;;;;;;8.98;6.53;;;;;;;;;;5096651;28;20107;-75
2023/06/14 00:13:35;;;;;;;8.23;5.63;;;;;;;;;;5078697;28;20084;-75
2023/06/14 00:16:01;;;;;;;9.52;6.55;;;;;;;;;;5096914;28;20099;-76
2023/06/14 00:18:29;;;;;;;7.85;6.88;;;;;;;;;;5115461;28;20463;-75
2023/06/14 00:20:56;;;;;;;10.35;5.70;;;;;;;;;;5115631;28;20483;-75
2023/06/14 00:23:21;;;;;;;9.43;6.93;;;;;;;;;;5097433;28;20016;-75
2023/06/14 00:25:47;;;;;;;10.43;6.88;;;;;;;;;;5115922;28;20458;-75
2023/06/14 00:28:13;;;;;;;9.20;6.00;;;;;;;;;;5116008;28;20095;-76
2023/06/14 00:30:39;;;;;;;10.50;6.47;;;;;;;;;;5115840;28;20020;-76
2023/06/14 00:33:04;;;;;;;9.23;6.15;;;;;;;;;;5115654;28;20336;-76
2023/06/14 00:35:30;;;;;;;11.10;5.85;;;;;;;;;;5115724;28;20044;-76
2023/06/14 00:37:55;;;;;;;8.18;5.82;;;;;;;;;;5115486;28;20426;-76
2023/06/14 00:40:21;;;;;;;10.30;6.43;;;;;;;;;;5115318;28;20011;-76
2023/06/14 00:42:48;;;;;;;10.32;6.18;;;;;;;;;;5115728;28;20019;-76
2023/06/14 00:45:14;;;;;;;8.73;6.43;;;;;;;;;;5115644;28;20018;-76
2023/06/14 00:47:41;;;;;;;9.40;6.40;;;;;;;;;;5115316;28;20015;-76
2023/06/14 00:50:09;;;;;;;9.07;6.32;;;;;;;;;;5115346;28;20410;-75
2023/06/14 00:52:35;;;;;;;12.88;7.15;;;;;;;;;;5096992;28;20035;-76
2023/06/14 00:55:02;;;;;;;11.82;6.82;;;;;;;;;;5115261;28;20089;-76
2023/06/14 00:57:37;;;;;;;7.45;5.65;;;;;;;;;;5096960;28;20140;-75
2023/06/14 01:00:04;;;;;;;11.98;6.30;;;;;;;;;;5115061;28;20494;-77
2023/06/14 01:02:30;;;;;;;9.73;6.38;;;;;;;;;;5097116;28;20020;-76
2023/06/14 01:04:56;;;;;;;8.80;5.55;;;;;;;;;;5114787;28;20067;-76
2023/06/14 01:07:32;;;;;;;10.00;5.90;;;;;;;;;;5115148;28;20019;-76
2023/06/14 01:10:14;;;;;;;10.80;6.25;;;;;;;;;;5115217;28;20030;-75
2023/06/14 01:12:47;;;;;;;7.97;5.55;;;;;;;;;;5114711;28;20088;-75
2023/06/14 01:15:12;;;;;;;9.90;5.90;;;;;;;;;;5114727;28;20381;-75
2023/06/14 01:17:41;;;;;;;7.43;5.70;;;;;;;;;;5114810;28;20098;-76
2023/06/14 01:20:11;;;;;;;8.30;6.18;;;;;;;;;;5114775;28;20023;-76
2023/06/14 01:22:43;;;;;;;10.52;6.18;;;;;;;;;;5115019;28;20016;-75
2023/06/14 01:25:08;;;;;;;8.82;6.30;;;;;;;;;;5095908;28;20031;-75
2023/06/14 01:27:34;;;;;;;9.75;7.22;;;;;;;;;;5114286;28;20116;-76
2023/06/14 01:30:04;;;;;;;7.70;6.65;;;;;;;;;;5096223;28;20023;-76
2023/06/14 01:32:32;;;;;;;9.43;6.55;;;;;;;;;;5114407;28;20064;-76
2023/06/14 01:34:57;;;;;;;9.50;6.65;;;;;;;;;;5113490;28;20024;-76
2023/06/14 01:37:29;;;;;;;9.00;6.35;;;;;;;;;;5113233;28;20019;-75
2023/06/14 01:39:54;;;;;;;8.50;6.95;;;;;;;;;;5113060;28;20015;-75
2023/06/14 01:42:21;;;;;;;10.13;6.68;;;;;;;;;;5112245;28;20114;-77
2023/06/14 01:44:46;;;;;;;9.98;6.00;;;;;;;;;;5112797;28;20375;-76
2023/06/14 01:47:14;;;;;;;12.63;7.35;;;;;;;;;;5113097;28;20027;-77
2023/06/14 01:49:40;;;;;;;12.43;7.00;;;;;;;;;;5094745;28;20114;-77
2023/06/14 01:52:06;;;;;;;9.38;6.53;;;;;;;;;;5113107;28;20099;-77
2023/06/14 01:54:31;;;;;;;9.35;6.22;;;;;;;;;;5112793;28;20019;-77
2023/06/14 01:57:02;;;;;;;11.40;6.78;;;;;;;;;;5112864;28;20046;-76
2023/06/14 01:59:37;;;;;;;10.02;6.57;;;;;;;;;;5112761;28;20019;-76
2023/06/14 02:02:03;;;;;;;11.25;6.85;;;;;;;;;;5094502;28;20062;-76
2023/06/14 02:04:28;;;;;;;10.48;6.70;;;;;;;;;;5085196;28;20076;-77
2023/06/14 02:06:53;;;;;;;12.35;7.65;;;;;;;;;;5072849;28;20029;-77
2023/06/14 02:09:19;;;;;;;12.77;7.03;;;;;;;;;;5073254;28;20130;-77
2023/06/14 02:11:45;;;;;;;10.63;7.20;;;;;;;;;;5073270;28;20634;-76
2023/06/14 02:14:11;;;;;;;10.45;6.93;;;;;;;;;;5071840;28;20027;-76
2023/06/14 02:16:38;;;;;;;10.90;7.03;;;;;;;;;;5073218;28;20028;-76
2023/06/14 02:19:05;;;;;;;9.50;6.97;;;;;;;;;;5073022;28;20047;-75
2023/06/14 02:21:31;;;;;;;9.90;6.50;;;;;;;;;;5055004;28;20056;-75
2023/06/14 02:23:58;;;;;;;9.80;6.88;;;;;;;;;;5072013;28;20033;-76
2023/06/14 02:26:25;;;;;;;12.95;6.72;;;;;;;;;;5073110;28;20457;-76
2023/06/14 02:28:51;;;;;;;8.68;6.38;;;;;;;;;;5073117;28;20037;-76
2023/06/14 02:31:17;;;;;;;10.93;7.75;;;;;;;;;;5073141;28;20028;-77
2023/06/14 02:33:44;;;;;;;11.02;7.20;;;;;;;;;;5073116;28;20033;-75
2023/06/14 02:36:10;;;;;;;12.40;7.38;;;;;;;;;;5072144;28;20020;-76
2023/06/14 02:38:37;;;;;;;10.73;6.65;;;;;;;;;;5072780;28;20081;-76
2023/06/14 02:41:04;;;;;;;9.82;6.82;;;;;;;;;;5072195;28;20012;-75
2023/06/14 02:43:30;;;;;;;9.30;6.78;;;;;;;;;;5072651;28;20017;-76
2023/06/14 02:45:56;;;;;;;10.25;6.82;;;;;;;;;;5072738;28;20099;-76
2023/06/14 02:48:22;;;;;;;14.13;7.65;;;;;;;;;;5072927;28;20033;-76
2023/06/14 02:50:47;;;;;;;9.60;6.72;;;;;;;;;;5071475;28;20028;-77
2023/06/14 02:53:13;;;;;;;9.82;7.43;;;;;;;;;;5072935;28;20453;-76
2023/06/14 02:55:40;;;;;;;10.98;7.28;;;;;;;;;;5073083;28;20025;-77
2023/06/14 02:58:06;;;;;;;10.90;7.57;;;;;;;;;;5072884;28;20056;-76
2023/06/14 03:00:32;;;;;;;11.68;8.10;;;;;;;;;;5072941;28;20484;-78
2023/06/14 03:03:01;;;;;;;12.38;6.72;;;;;;;;;;5072781;28;20099;-77
2023/06/14 03:05:35;;;;;;;12.90;7.28;;;;;;;;;;5088338;28;20100;-77
2023/06/14 03:08:02;;;;;;;19.23;7.53;;;;;;;;;;5113413;28;20012;-76
2023/06/14 03:10:28;;;;;;;11.60;7.20;;;;;;;;;;5113150;28;20460;-77
2023/06/14 03:12:55;;;;;;;11.18;6.75;;;;;;;;;;5113097;28;20548;-76
2023/06/14 03:15:24;;;;;;;10.10;6.97;;;;;;;;;;5113088;28;20458;-77
2023/06/14 03:17:50;;;;;;;12.75;6.95;;;;;;;;;;5113012;28;20113;-77
2023/06/14 03:20:18;;;;;;;11.43;7.43;;;;;;;;;;5112638;28;20460;-76
2023/06/14 03:22:45;;;;;;;11.38;7.70;;;;;;;;;;5113303;28;20344;-76
2023/06/14 03:25:12;;;;;;;9.63;6.85;;;;;;;;;;5113404;28;20019;-76
2023/06/14 03:27:38;;;;;;;9.70;7.43;;;;;;;;;;5113109;28;20020;-77
2023/06/14 03:30:04;;;;;;;10.43;7.05;;;;;;;;;;5113260;28;20028;-77
2023/06/14 03:32:33;;;;;;;9.63;7.40;;;;;;;;;;5112908;28;20031;-77
2023/06/14 03:34:58;;;;;;;10.05;6.72;;;;;;;;;;5113139;28;20047;-78
2023/06/14 03:37:24;;;;;;;13.20;7.37;;;;;;;;;;5112769;28;20468;-78
2023/06/14 03:39:51;;;;;;;8.75;7.10;;;;;;;;;;5112996;28;20278;-77
2023/06/14 03:42:18;;;;;;;8.30;7.10;;;;;;;;;;5094215;28;20119;-77
2023/06/14 03:44:44;;;;;;;10.43;6.82;;;;;;;;;;5112673;28;20015;-77
2023/06/14 03:47:12;;;;;;;10.82;6.82;;;;;;;;;;5112901;28;20023;-76
2023/06/14 03:49:45;;;;;;;10.23;7.95;;;;;;;;;;5116724;28;20482;-76
2023/06/14 03:52:11;;;;;;;9.68;6.95;;;;;;;;;;5116415;28;20019;-76
2023/06/14 03:54:36;;;;;;;10.27;6.95;;;;;;;;;;5116189;28;20019;-76
2023/06/14 03:57:02;;;;;;;9.10;7.13;;;;;;;;;;5116447;28;20032;-77
2023/06/14 03:59:29;;;;;;;11.38;7.82;;;;;;;;;;5097835;28;20281;-77
2023/06/14 04:02:03;;;;;;;10.10;6.63;;;;;;;;;;5116446;28;20027;-77
2023/06/14 04:04:29;;;;;;;15.30;7.47;;;;;;;;;;5088726;28;20041;-76
2023/06/14 04:07:00;;;;;;;9.07;6.90;;;;;;;;;;5075648;28;20017;-77
2023/06/14 04:09:26;;;;;;;11.30;7.13;;;;;;;;;;5075465;28;20028;-77
2023/06/14 04:11:53;;;;;;;7.97;6.65;;;;;;;;;;5074211;28;20061;-77
2023/06/14 04:14:19;;;;;;;9.20;6.22;;;;;;;;;;5074223;28;20469;-77
2023/06/14 04:16:46;;;;;;;8.88;6.80;;;;;;;;;;5075632;28;20025;-76
2023/06/14 04:19:11;;;;;;;10.27;6.70;;;;;;;;;;5057299;28;20029;-77
2023/06/14 04:21:38;;;;;;;7.93;6.63;;;;;;;;;;5075299;28;20031;-76
2023/06/14 04:24:04;;;;;;;8.98;6.80;;;;;;;;;;5074357;28;20100;-77
2023/06/14 04:26:33;;;;;;;8.07;6.53;;;;;;;;;;5075216;28;20020;-77
2023/06/14 04:29:01;;;;;;;10.60;6.68;;;;;;;;;;5075194;28;20028;-77
2023/06/14 04:31:29;;;;;;;10.55;7.13;;;;;;;;;;5074184;28;20041;-77
2023/06/14 04:33:56;;;;;;;9.05;6.32;;;;;;;;;;5075152;28;20368;-74
2023/06/14 04:36:22;;;;;;;11.20;7.07;;;;;;;;;;5073962;28;20129;-75
2023/06/14 04:38:49;;;;;;;12.07;6.45;;;;;;;;;;5075668;28;20437;-76
2023/06/14 04:41:15;;;;;;;8.48;6.32;;;;;;;;;;5074371;28;20116;-74
2023/06/14 04:43:42;;;;;;;12.85;6.78;;;;;;;;;;5074952;28;20043;-74
2023/06/14 04:46:14;;;;;;;10.20;6.38;;;;;;;;;;5074996;28;20115;-73
2023/06/14 04:48:42;;;;;;;11.93;7.45;;;;;;;;;;5074746;28;20112;-75
2023/06/14 04:51:08;;;;;;;11.70;6.65;;;;;;;;;;5075036;28;20025;-78
2023/06/14 04:53:35;;;;;;;9.73;6.85;;;;;;;;;;5073730;28;20097;-80
2023/06/14 04:56:04;;;;;;;12.70;7.25;;;;;;;;;;5073724;28;20100;-81
2023/06/14 04:58:30;;;;;;;8.85;7.00;;;;;;;;;;5077130;28;20048;-80
2023/06/14 05:00:59;;;;;;;10.82;6.55;;;;;;;;;;5074205;28;20043;-70
2023/06/14 05:03:30;;;;;;;11.38;6.78;;;;;;;;;;5074697;28;20107;-73
2023/06/14 05:05:56;;;;;;;9.65;7.22;;;;;;;;;;5094378;28;20131;-73
2023/06/14 05:08:23;;;;;;;11.02;6.75;;;;;;;;;;5114033;28;20034;-72
2023/06/14 05:10:57;;;;;;;13.52;7.55;;;;;;;;;;5115436;28;20024;-75
2023/06/14 05:13:23;;;;;;;14.40;6.57;;;;;;;;;;5115492;28;20031;-75
2023/06/14 05:15:50;;;;;;;10.68;6.97;;;;;;;;;;5096889;28;20035;-74
2023/06/14 05:18:17;;;;;;;10.43;6.90;;;;;;;;;;5115197;28;20050;-75
2023/06/14 05:20:45;;;;;;;12.00;6.85;;;;;;;;;;5115123;28;20018;-75
2023/06/14 05:23:15;;;;;;;10.23;7.85;;;;;;;;;;5115087;28;20023;-73
2023/06/14 05:25:45;;;;;;;10.93;7.55;;;;;;;;;;5080151;28;20114;-73
2023/06/14 05:28:11;;;;;;;9.60;7.38;;;;;;;;;;5114692;28;20098;-74
2023/06/14 05:30:39;;;;;;;10.30;7.43;;;;;;;;;;5114841;28;20034;-76
2023/06/14 05:33:05;;;;;;;11.98;8.18;;;;;;;;;;5115097;28;20020;-75
2023/06/14 05:35:30;;;;;;;11.18;8.68;;;;;;;;;;5096422;28;20032;-75
2023/06/14 05:37:56;;;;;;;10.10;8.35;;;;;;;;;;5114554;28;20023;-73
2023/06/14 05:40:21;;;;;;;13.97;8.60;;;;;;;;;;5113609;28;20027;-75
2023/06/14 05:42:48;;;;;;;13.18;7.72;;;;;;;;;;5114475;28;20289;-74
2023/06/14 05:45:15;;;;;;;10.77;7.63;;;;;;;;;;5114553;28;20016;-75
2023/06/14 05:47:41;;;;;;;16.98;9.32;;;;;;;;;;5113736;28;20023;-73
2023/06/14 05:50:07;;;;;;;12.43;8.98;;;;;;;;;;5113156;28;20390;-74
2023/06/14 05:52:32;;;;;;;12.23;9.30;;;;;;;;;;5113236;28;20149;-72
2023/06/14 05:54:57;;;;;;;14.70;9.30;;;;;;;;;;5113307;28;20024;-72
2023/06/14 05:57:29;;;;;;;13.02;8.52;;;;;;;;;;5113142;28;20620;-74
2023/06/14 05:59:54;;;;;;;16.50;9.40;;;;;;;;;;5113207;28;20482;-73
2023/06/14 06:02:19;;;;;;;19.35;10.48;;;;;;;;;;5113558;28;20537;-74
2023/06/14 06:04:45;;;;;;;19.38;9.70;;;;;;;;;;5113770;28;20050;-74
2023/06/14 06:07:11;;;;;;;14.37;9.27;;;;;;;;;;5114038;28;20012;-75
2023/06/14 06:09:36;;;;;;;14.90;9.07;;;;;;;;;;5095987;28;20265;-74
2023/06/14 06:12:02;;;;;;;12.18;8.93;;;;;;;;;;5093838;28;20084;-75
2023/06/14 06:14:27;;;;;;;13.85;8.80;;;;;;;;;;5113710;28;20063;-74
2023/06/14 06:17:05;;;;;;;11.82;8.48;;;;;;;;;;5114114;28;20020;-74
2023/06/14 06:19:31;;;;;;;9.90;7.95;;;;;;;;;;5113492;28;20024;-79
2023/06/14 06:21:58;;;;;;;13.55;8.18;;;;;;;;;;5115619;28;20452;-78
2023/06/14 06:24:23;;;;;;;12.85;8.82;;;;;;;;;;5241356;22;20057;-76
2023/06/14 06:26:49;;;;;;;10.53;8.03;;;;;;;;;;5033515;28;20037;-72
2023/06/14 06:29:15;;;;;;;15.00;8.90;;;;;;;;;;5033133;28;20260;-75
2023/06/14 06:31:41;;;;;;;14.77;9.05;;;;;;;;;;5034700;28;20083;-76
2023/06/14 06:34:06;;;;;;;15.43;10.18;;;;;;;;;;5034583;28;20033;-78
2023/06/14 06:36:34;;;;;;;13.57;9.40;;;;;;;;;;5035012;28;20382;-77
2023/06/14 06:39:01;;;;;;;17.15;10.02;;;;;;;;;;5017811;28;20029;-76
2023/06/14 06:41:27;;;;;;;15.88;9.52;;;;;;;;;;5034831;28;20088;-77
2023/06/14 06:43:54;;;;;;;13.38;10.05;;;;;;;;;;5039309;28;20021;-76
2023/06/14 06:46:19;;;;;;;18.40;10.13;;;;;;;;;;5054036;28;20025;-77
2023/06/14 06:48:44;;;;;;;14.90;9.60;;;;;;;;;;5053012;28;20037;-78
2023/06/14 06:51:12;;;;;;;15.80;10.95;;;;;;;;;;5053822;28;20787;-78
2023/06/14 06:53:49;;;;;;;14.30;10.07;;;;;;;;;;5036015;28;20036;-76
2023/06/14 06:56:23;;;;;;;13.30;9.73;;;;;;;;;;5054006;28;20096;-78
2023/06/14 06:58:53;;;;;;;13.50;8.82;;;;;;;;;;5052898;28;20021;-77
2023/06/14 07:01:20;;;;;;;13.68;9.77;;;;;;;;;;5053427;28;20021;-79
2023/06/14 07:03:46;;;;;;;14.73;10.38;;;;;;;;;;5050343;28;20097;-76
2023/06/14 07:06:13;;;;;;;11.57;9.05;;;;;;;;;;5053416;28;20029;-77
2023/06/14 07:08:38;;;;;;;16.48;10.35;;;;;;;;;;5034645;28;20029;-75
2023/06/14 07:11:05;;;;;;;14.00;10.00;;;;;;;;;;5035555;28;20426;-77
2023/06/14 07:13:31;;;;;;;12.30;9.85;;;;;;;;;;5053032;28;20029;-77
2023/06/14 07:15:58;;;;;;;16.45;10.25;;;;;;;;;;5035304;28;20036;-76
2023/06/14 07:18:24;;;;;;;13.52;10.15;;;;;;;;;;5035304;28;20025;-76
2023/06/14 07:20:50;;;;;;;14.15;10.27;;;;;;;;;;5035343;28;20032;-75
2023/06/14 07:23:17;;;;;;;13.52;10.15;;;;;;;;;;5055046;28;20032;-77
2023/06/14 07:25:43;;;;;;;12.55;10.35;;;;;;;;;;5070503;28;20064;-77
2023/06/14 07:28:08;;;;;;;11.35;10.05;;;;;;;;;;5077168;28;20028;-74
2023/06/14 07:30:36;;;;;;;17.13;9.40;;;;;;;;;;5076671;28;20020;-76
2023/06/14 07:33:01;;;;;;;11.80;8.63;;;;;;;;;;5076505;28;20114;-75
2023/06/14 07:35:26;;;;;;;11.37;10.10;;;;;;;;;;5076553;28;20154;-73
2023/06/14 07:37:52;;;;;;;12.43;9.53;;;;;;;;;;5076638;28;20016;-75
2023/06/14 07:40:18;;;;;;;12.02;10.38;;;;;;;;;;5076360;28;20624;-73
2023/06/14 07:42:43;;;;;;;11.17;8.73;;;;;;;;;;5076532;28;20020;-76
2023/06/14 07:45:08;;;;;;;10.83;9.43;;;;;;;;;;5076719;28;20255;-75
2023/06/14 07:47:34;;;;;;;10.98;9.40;;;;;;;;;;5076226;28;20020;-77
2023/06/14 07:49:59;;;;;;;13.10;9.88;;;;;;;;;;5064530;28;20024;-78
2023/06/14 07:52:26;;;;;;;13.85;9.32;;;;;;;;;;5096534;28;20024;-81
2023/06/14 07:55:03;;;;;;;11.05;9.00;;;;;;;;;;5089685;28;20048;-81
2023/06/14 07:57:29;;;;;;;10.88;9.63;;;;;;;;;;5080695;28;20021;-77
2023/06/14 07:59:54;;;;;;;12.77;9.70;;;;;;;;;;5076239;28;20521;-77
2023/06/14 08:02:21;;;;;;;12.57;9.33;;;;;;;;;;5076403;28;20379;-80
2023/06/14 08:04:48;;;;;;;10.10;8.25;;;;;;;;;;5058436;28;20663;-74
2023/06/14 08:07:15;;;;;;;10.90;8.43;;;;;;;;;;5075944;28;20020;-74
2023/06/14 08:09:40;;;;;;;10.65;8.85;;;;;;;;;;5057907;28;20119;-74
2023/06/14 08:12:15;;;;;;;11.05;8.65;;;;;;;;;;5075946;28;20063;-72
2023/06/14 08:14:42;;;;;;;11.13;8.20;;;;;;;;;;5076348;28;20112;-76
2023/06/14 08:17:08;;;;;;;11.80;8.82;;;;;;;;;;5075961;28;20370;-76
2023/06/14 08:19:34;;;;;;;11.88;7.78;;;;;;;;;;5074893;28;20044;-76
2023/06/14 08:22:00;;;;;;;9.97;8.00;;;;;;;;;;5076102;28;20016;-74
2023/06/14 08:24:29;;;;;;;13.82;8.40;;;;;;;;;;5075333;28;20439;-75
2023/06/14 08:26:54;;;;;;;11.55;8.75;;;;;;;;;;5075455;28;20017;-75
2023/06/14 08:29:20;;;;;;;10.00;8.33;;;;;;;;;;5056926;28;20043;-75
2023/06/14 08:31:47;;;;;;;10.57;8.20;;;;;;;;;;5075674;28;20381;-76
2023/06/14 08:34:13;;;;;;;9.90;7.55;;;;;;;;;;5074376;28;20031;-76
2023/06/14 08:36:38;;;;;;;8.90;7.45;;;;;;;;;;5075820;28;20036;-75
2023/06/14 08:39:05;;;;;;;9.77;7.80;;;;;;;;;;5074631;28;20048;-76
2023/06/14 08:41:31;;;;;;;9.40;8.02;;;;;;;;;;5058131;28;20032;-76
2023/06/14 08:43:58;;;;;;;10.82;8.23;;;;;;;;;;5075386;28;20051;-75
2023/06/14 08:46:27;;;;;;;12.40;8.25;;;;;;;;;;5075237;28;20016;-75
2023/06/14 08:48:56;;;;;;;10.60;8.40;;;;;;;;;;5057207;28;20037;-77
2023/06/14 08:51:22;;;;;;;11.20;7.63;;;;;;;;;;5057388;28;20032;-75
2023/06/14 08:53:57;;;;;;;9.48;7.60;;;;;;;;;;5057140;28;20440;-73
2023/06/14 08:56:27;;;;;;;10.82;7.60;;;;;;;;;;5057439;28;20055;-76
2023/06/14 08:58:54;;;;;;;8.43;7.07;;;;;;;;;;5075131;28;20020;-76
2023/06/14 09:01:21;;;;;;;8.68;7.55;;;;;;;;;;5074832;28;20043;-76
2023/06/14 09:03:48;;;;;;;8.98;6.93;;;;;;;;;;5057346;28;20017;-76
2023/06/14 09:06:15;;;;;;;11.05;7.70;;;;;;;;;;5075235;28;20024;-76
2023/06/14 09:08:44;;;;;;;11.00;9.10;;;;;;;;;;5075196;28;20027;-76
2023/06/14 09:11:13;;;;;;;10.23;8.13;;;;;;;;;;5057038;28;20107;-74
2023/06/14 09:13:39;;;;;;;10.50;8.10;;;;;;;;;;5056702;28;20082;-72
2023/06/14 09:16:06;;;;;;;10.32;7.57;;;;;;;;;;5074843;28;20055;-73
2023/06/14 09:18:44;;;;;;;8.90;7.07;;;;;;;;;;5074377;28;20695;-74
2023/06/14 09:21:09;;;;;;;8.63;6.88;;;;;;;;;;5074781;28;20020;-74
2023/06/14 09:23:39;;;;;;;14.38;6.95;;;;;;;;;;5056569;28;20027;-74
2023/06/14 09:26:09;;;;;;;12.88;7.53;;;;;;;;;;5074183;28;20059;-73
2023/06/14 09:28:46;;;;;;;11.32;7.50;;;;;;;;;;5074116;28;20078;-73
2023/06/14 09:31:16;;;;;;;12.80;8.00;;;;;;;;;;5074296;28;20044;-74
2023/06/14 09:33:50;;;;;;;10.85;7.72;;;;;;;;;;5074323;28;20043;-75
2023/06/14 09:36:18;;;;;;;12.30;8.27;;;;;;;;;;5074220;28;20032;-78
2023/06/14 09:38:55;;;;;;;11.32;7.55;;;;;;;;;;5056471;28;20465;-77
2023/06/14 09:41:21;;;;;;;9.02;7.47;;;;;;;;;;5056235;28;20027;-75
2023/06/14 09:43:47;;;;;;;11.30;7.55;;;;;;;;;;5074244;28;20100;-76
2023/06/14 09:46:13;;;;;;;12.23;8.55;;;;;;;;;;5056271;28;20052;-80
2023/06/14 09:48:42;;;;;;;14.77;8.13;;;;;;;;;;5074173;28;20027;-76
2023/06/14 09:51:13;;;;;;;11.75;8.10;;;;;;;;;;5074141;28;20100;-79
2023/06/14 09:53:48;;;;;;;7.97;6.20;;;;;;;;;;5073484;28;20028;-78
2023/06/14 09:56:29;;;;;;;8.05;5.80;;;;;;;;;;5074187;28;20480;-78
2023/06/14 09:59:03;;;;;;;11.70;5.03;;;;;;;;;;5073451;28;20108;-77
2023/06/14 10:01:38;;;;;;;7.15;4.70;;;;;;;;;;5073512;28;20103;-77
2023/06/14 10:04:06;;;;;;;7.30;4.75;;;;;;;;;;5073721;28;20032;-76
2023/06/14 10:06:33;;;;;;;9.07;5.40;;;;;;;;;;5055768;28;20029;-76
2023/06/14 10:08:59;;;;;;;9.45;4.93;;;;;;;;;;5054762;28;20032;-78
2023/06/14 10:11:35;;;;;;;12.60;4.35;;;;;;;;;;5035713;28;20029;-74
2023/06/14 10:14:05;;;;;;;4.65;3.72;;;;;;;;;;5054239;28;20029;-74
2023/06/14 10:16:42;;;;;;;9.15;4.57;;;;;;;;;;5053418;28;20021;-75
2023/06/14 10:19:17;;;;;;;7.55;3.90;;;;;;;;;;5133439;22;20455;-76
2023/06/14 10:21:42;;;;;;;5.72;4.38;;;;;;;;;;5058711;28;20044;-73
2023/06/14 10:24:10;;;;;;;6.88;3.83;;;;;;;;;;5076550;28;20021;-74
2023/06/14 10:26:49;;;;;;;9.05;4.78;;;;;;;;;;5075965;28;20031;-73
2023/06/14 10:29:15;;;;;;;8.35;4.05;;;;;;;;;;5057901;28;20092;-73
2023/06/14 10:31:42;;;;;;;6.63;3.83;;;;;;;;;;5076633;28;20025;-73
2023/06/14 10:34:07;;;;;;;9.02;4.45;;;;;;;;;;5076688;28;20024;-75
2023/06/14 10:36:34;;;;;;;11.60;3.97;;;;;;;;;;5076279;28;20017;-75
2023/06/14 10:39:00;;;;;;;4.93;3.78;;;;;;;;;;5074013;28;20545;-74
2023/06/14 10:41:28;;;;;;;7.65;4.13;;;;;;;;;;5074062;28;20044;-75
2023/06/14 10:44:12;;;;;;;7.75;3.92;;;;;;;;;;5078830;28;20012;-74
2023/06/14 10:46:37;;;;;;;4.78;3.85;;;;;;;;;;5092930;28;20023;-74
2023/06/14 10:49:06;;;;;;;7.05;4.60;;;;;;;;;;5075006;28;20476;-74
2023/06/14 10:51:46;;;;;;;7.85;3.90;;;;;;;;;;5093078;28;20034;-74
2023/06/14 10:54:13;;;;;;;7.15;4.03;;;;;;;;;;5093171;28;20488;-76
2023/06/14 10:56:45;;;;;;;4.75;3.80;;;;;;;;;;5093426;28;20024;-76
2023/06/14 10:59:10;;;;;;;4.28;3.42;;;;;;;;;;5096725;28;20027;-77
2023/06/14 11:01:40;;;;;;;5.43;4.17;;;;;;;;;;5097474;28;20020;-76
2023/06/14 11:04:09;;;;;;;4.78;4.10;;;;;;;;;;5097480;28;20028;-76
2023/06/14 11:06:48;;;;;;;9.73;3.95;;;;;;;;;;5096975;28;20027;-77
2023/06/14 11:09:34;;;;;;;5.88;4.88;;;;;;;;;;5097111;28;20035;-78
2023/06/14 11:12:00;;;;;;;5.70;4.15;;;;;;;;;;5097137;28;20544;-75
2023/06/14 11:14:25;;;;;;;8.65;4.15;;;;;;;;;;5095010;28;20024;-77
2023/06/14 11:16:50;;;;;;;8.57;4.43;;;;;;;;;;5094632;28;20024;-76
2023/06/14 11:19:17;;;;;;;4.53;4.10;;;;;;;;;;5094457;28;20501;-78
2023/06/14 11:21:42;;;;;;;4.15;3.60;;;;;;;;;;5091863;28;20047;-80
2023/06/14 11:24:11;;;;;;;6.68;4.00;;;;;;;;;;5097350;28;20048;-80
2023/06/14 11:26:37;;;;;;;4.82;3.92;;;;;;;;;;5096634;28;20036;-79
2023/06/14 11:29:02;;;;;;;5.82;4.25;;;;;;;;;;5097033;28;20032;-79
2023/06/14 11:31:28;;;;;;;10.68;4.38;;;;;;;;;;5097022;28;20028;-78
2023/06/14 11:33:57;;;;;;;7.25;3.83;;;;;;;;;;5096962;28;20409;-78
2023/06/14 11:36:22;;;;;;;7.70;5.25;;;;;;;;;;5096558;28;20035;-79
2023/06/14 11:38:48;;;;;;;7.10;4.10;;;;;;;;;;5096199;28;20028;-80
2023/06/14 11:41:13;;;;;;;7.50;3.58;;;;;;;;;;5096704;28;20031;-83
2023/06/14 11:43:40;;;;;;;6.90;4.17;;;;;;;;;;5096388;28;20021;-79
2023/06/14 11:46:11;;;;;;;4.05;3.30;;;;;;;;;;5096423;28;20036;-78
2023/06/14 11:48:38;;;;;;;4.03;3.40;;;;;;;;;;5096725;28;20031;-80
2023/06/14 11:51:04;;;;;;;5.57;3.85;;;;;;;;;;5096281;28;20024;-77
2023/06/14 11:53:29;;;;;;;4.47;3.28;;;;;;;;;;5096148;28;20027;-78
2023/06/14 11:55:54;;;;;;;4.57;3.50;;;;;;;;;;5096095;28;20027;-78
2023/06/14 11:58:20;;;;;;;8.23;3.85;;;;;;;;;;5095161;28;20039;-79
2023/06/14 12:00:48;;;;;;;4.75;3.72;;;;;;;;;;5093996;28;20012;-77
2023/06/14 12:03:13;;;;;;;8.73;3.53;;;;;;;;;;5094340;28;20084;-77
2023/06/14 12:05:39;;;;;;;5.70;3.67;;;;;;;;;;5093921;28;20520;-78
2023/06/14 12:08:07;;;;;;;5.17;3.70;;;;;;;;;;5075654;28;20016;-77
2023/06/14 12:10:39;;;;;;;5.53;3.63;;;;;;;;;;5094227;28;20352;-79
2023/06/14 12:13:05;;;;;;;6.43;3.78;;;;;;;;;;5094141;28;20024;-77
2023/06/14 12:15:31;;;;;;;10.23;3.83;;;;;;;;;;5093891;28;20362;-77
2023/06/14 12:17:57;;;;;;;7.40;3.38;;;;;;;;;;5094067;28;20254;-78
2023/06/14 12:20:23;;;;;;;6.78;3.50;;;;;;;;;;5093621;28;20050;-77
2023/06/14 12:22:58;;;;;;;5.10;3.45;;;;;;;;;;5093579;28;20087;-78
2023/06/14 12:25:26;;;;;;;11.57;3.80;;;;;;;;;;5093603;28;20058;-77
2023/06/14 12:27:52;;;;;;;8.18;3.58;;;;;;;;;;5093146;28;20095;-78
2023/06/14 12:30:17;;;;;;;8.02;4.05;;;;;;;;;;5094480;28;20095;-77
2023/06/14 12:32:44;;;;;;;6.33;3.23;;;;;;;;;;5095528;28;20453;-77
2023/06/14 12:35:09;;;;;;;8.55;3.60;;;;;;;;;;5094086;28;20627;-78
2023/06/14 12:37:34;;;;;;;3.63;3.33;;;;;;;;;;5093518;28;20050;-79
2023/06/14 12:40:00;;;;;;;5.88;3.58;;;;;;;;;;5095320;28;20278;-77
2023/06/14 12:42:25;;;;;;;4.55;3.20;;;;;;;;;;5095035;28;20377;-78
2023/06/14 12:44:51;;;;;;;5.18;4.00;;;;;;;;;;5095032;28;20016;-78
2023/06/14 12:47:16;;;;;;;6.47;3.37;;;;;;;;;;5095340;28;20023;-77
2023/06/14 12:49:41;;;;;;;6.80;3.55;;;;;;;;;;5095411;28;20307;-78
2023/06/14 12:52:07;;;;;;;5.78;3.72;;;;;;;;;;5076803;28;20031;-78
2023/06/14 12:54:32;;;;;;;6.43;3.78;;;;;;;;;;5095058;28;20376;-78
2023/06/14 12:56:57;;;;;;;4.60;3.50;;;;;;;;;;5094939;28;20533;-78
2023/06/14 12:59:23;;;;;;;8.20;3.88;;;;;;;;;;5094797;28;20093;-78
2023/06/14 13:01:50;;;;;;;6.25;3.45;;;;;;;;;;5094848;28;20024;-79
2023/06/14 13:04:15;;;;;;;5.20;3.63;;;;;;;;;;5094864;28;20530;-78
2023/06/14 13:06:40;;;;;;;8.38;3.17;;;;;;;;;;5095343;28;20012;-78
2023/06/14 13:09:06;;;;;;;4.73;3.73;;;;;;;;;;5076797;28;20055;-78
2023/06/14 13:11:31;;;;;;;4.60;3.17;;;;;;;;;;5094977;28;20270;-77
2023/06/14 13:13:56;;;;;;;5.43;3.30;;;;;;;;;;5094767;28;20030;-79
2023/06/14 13:16:22;;;;;;;9.15;3.58;;;;;;;;;;5095090;28;20031;-78
2023/06/14 13:18:47;;;;;;;7.83;3.90;;;;;;;;;;5094380;28;20040;-78
2023/06/14 13:21:12;;;;;;;5.53;3.73;;;;;;;;;;5093885;28;20796;-78
2023/06/14 13:23:37;;;;;;;7.40;4.03;;;;;;;;;;5076299;28;20262;-77
2023/06/14 13:26:03;;;;;;;5.57;3.90;;;;;;;;;;5094267;28;20738;-78
2023/06/14 13:28:28;;;;;;;5.10;3.27;;;;;;;;;;5094254;28;20262;-78
2023/06/14 13:30:55;;;;;;;7.78;3.97;;;;;;;;;;5094253;28;20262;-77
2023/06/14 13:33:20;;;;;;;6.70;3.90;;;;;;;;;;5094320;28;20020;-78
2023/06/14 13:35:46;;;;;;;8.02;4.38;;;;;;;;;;5094409;28;20024;-78
2023/06/14 13:38:11;;;;;;;5.93;3.80;;;;;;;;;;5094220;28;20020;-78
2023/06/14 13:40:37;;;;;;;5.70;4.13;;;;;;;;;;5093942;28;20750;-75
2023/06/14 13:43:04;;;;;;;9.43;4.78;;;;;;;;;;5094667;28;20446;-76
2023/06/14 13:45:30;;;;;;;4.85;3.72;;;;;;;;;;5091111;28;20028;-76
2023/06/14 13:47:58;;;;;;;7.05;4.18;;;;;;;;;;5094282;28;20069;-76
2023/06/14 13:50:23;;;;;;;5.70;4.00;;;;;;;;;;5094311;28;20031;-76
2023/06/14 13:52:49;;;;;;;5.85;3.65;;;;;;;;;;5094297;28;20020;-78
2023/06/14 13:55:14;;;;;;;5.82;3.75;;;;;;;;;;5094246;28;20016;-76
2023/06/14 13:57:41;;;;;;;7.20;3.83;;;;;;;;;;5094165;28;20043;-75
2023/06/14 14:00:06;;;;;;;6.88;4.10;;;;;;;;;;5093740;28;20781;-74
2023/06/14 14:02:32;;;;;;;6.18;4.10;;;;;;;;;;5094068;28;20020;-76
2023/06/14 14:04:58;;;;;;;7.45;4.22;;;;;;;;;;5094048;28;20027;-75
2023/06/14 14:07:23;;;;;;;6.27;3.83;;;;;;;;;;5093791;28;20456;-76
2023/06/14 14:09:57;;;;;;;7.32;4.00;;;;;;;;;;5093863;28;20281;-75
2023/06/14 14:12:25;;;;;;;4.28;3.88;;;;;;;;;;5093509;28;20461;-75
2023/06/14 14:14:52;;;;;;;7.70;4.43;;;;;;;;;;5094366;28;20020;-76
2023/06/14 14:17:17;;;;;;;7.47;4.30;;;;;;;;;;5074793;28;20123;-74
2023/06/14 14:19:44;;;;;;;6.20;4.20;;;;;;;;;;5092388;28;20119;-74
2023/06/14 14:22:10;;;;;;;6.32;4.40;;;;;;;;;;5093310;28;20453;-74
2023/06/14 14:24:36;;;;;;;6.53;4.03;;;;;;;;;;5093181;28;20024;-73
2023/06/14 14:27:03;;;;;;;4.47;3.33;;;;;;;;;;5093552;28;20042;-73
2023/06/14 14:29:30;;;;;;;5.78;3.38;;;;;;;;;;5093697;28;20062;-74
2023/06/14 14:31:56;;;;;;;3.90;2.80;;;;;;;;;;5092681;28;20107;-74
2023/06/14 14:34:24;;;;;;;8.27;3.20;;;;;;;;;;5093293;28;20139;-75
2023/06/14 14:36:49;;;;;;;5.75;3.10;;;;;;;;;;5074922;28;20032;-74